Time;durP1;ratioP1;P1;durP2;ratioP2;P2;SDS_P1;SDS_P2;PMS_P1;PMS_P2;Temp;Humidity;BMP_temperature;BMP_pressure;BME280_temperature;BME280_humidity;BME280_pressure;Samples;Min_cycle;Max_cycle;Signal;HPM_P1;HPM_P2
2021/11/14 00:01:13;;;;;;;29.20;26.07;;;9.30;99.90;;;;;;5074561;28;20443;-89
2021/11/14 00:03:40;;;;;;;28.33;25.27;;;9.20;99.90;;;;;;5077753;28;20479;-88
2021/11/14 00:06:08;;;;;;;28.13;24.90;;;9.20;99.90;;;;;;5080082;28;20979;-89
2021/11/14 00:08:35;;;;;;;28.03;24.93;;;9.20;99.90;;;;;;5077562;28;21003;-89
2021/11/14 00:11:09;;;;;;;27.20;24.37;;;9.30;99.90;;;;;;5077315;28;20447;-89
2021/11/14 00:13:36;;;;;;;28.53;25.53;;;9.30;99.90;;;;;;5075639;28;20472;-90
2021/11/14 00:16:03;;;;;;;29.53;25.10;;;9.30;99.90;;;;;;5078772;28;20443;-88
2021/11/14 00:18:31;;;;;;;28.53;25.57;;;9.30;99.90;;;;;;5078086;28;20444;-89
2021/11/14 00:20:57;;;;;;;27.80;24.77;;;9.30;99.90;;;;;;5075063;28;20509;-89
2021/11/14 00:23:24;;;;;;;28.20;23.90;;;9.20;99.90;;;;;;5076144;28;20452;-89
2021/11/14 00:25:52;;;;;;;29.00;24.00;;;9.20;99.90;;;;;;5085065;28;20439;-89
2021/11/14 00:28:19;;;;;;;27.70;24.70;;;9.30;99.90;;;;;;5078285;28;20471;-89
2021/11/14 00:30:46;;;;;;;26.73;23.40;;;9.30;99.90;;;;;;5088757;28;20545;-90
2021/11/14 00:33:15;;;;;;;31.13;25.10;;;9.30;99.90;;;;;;5081948;28;20523;-90
2021/11/14 00:35:43;;;;;;;28.77;24.57;;;9.30;99.90;;;;;;5077788;28;20493;-88
2021/11/14 00:38:10;;;;;;;28.40;25.40;;;9.20;99.90;;;;;;5082352;28;20454;-90
2021/11/14 00:40:40;;;;;;;29.37;26.37;;;9.10;99.90;;;;;;5093822;28;20451;-89
2021/11/14 00:43:07;;;;;;;33.57;26.00;;;9.00;99.90;;;;;;5083531;28;20460;-88
2021/11/14 00:45:37;;;;;;;28.07;25.10;;;9.10;99.90;;;;;;5095236;28;20451;-90
2021/11/14 00:48:04;;;;;;;29.73;26.67;;;9.20;99.90;;;;;;5077997;28;20464;-89
2021/11/14 00:50:32;;;;;;;30.80;26.87;;;9.10;99.90;;;;;;5077261;28;20469;-89
2021/11/14 00:53:01;;;;;;;31.07;26.50;;;9.00;99.90;;;;;;5077615;28;20467;-89
2021/11/14 00:55:30;;;;;;;28.83;25.73;;;9.00;99.90;;;;;;5076336;28;20490;-88
2021/11/14 00:57:57;;;;;;;28.23;24.43;;;9.00;99.90;;;;;;5074348;28;20443;-88
2021/11/14 01:00:26;;;;;;;29.07;25.77;;;9.00;99.90;;;;;;5073941;28;20430;-88
2021/11/14 01:02:53;;;;;;;29.60;26.27;;;9.10;99.90;;;;;;5073620;28;20474;-88
2021/11/14 01:05:21;;;;;;;28.23;25.23;;;9.00;99.90;;;;;;5074517;28;20530;-88
2021/11/14 01:07:48;;;;;;;28.03;25.00;;;9.10;99.90;;;;;;5076480;28;20992;-89
2021/11/14 01:10:19;;;;;;;30.90;26.37;;;9.10;99.90;;;;;;5073734;28;20965;-88
2021/11/14 01:12:46;;;;;;;25.97;23.20;;;9.10;99.90;;;;;;5073649;28;20475;-88
2021/11/14 01:15:15;;;;;;;28.17;23.00;;;9.10;99.90;;;;;;5095482;28;20426;-89
2021/11/14 01:17:42;;;;;;;30.23;24.07;;;9.10;99.90;;;;;;5096612;28;20436;-90
2021/11/14 01:20:11;;;;;;;27.80;23.97;;;9.00;99.90;;;;;;5077105;28;20455;-88
2021/11/14 01:22:46;;;;;;;30.57;27.27;;;9.00;99.90;;;;;;5090339;28;20447;-89
2021/11/14 01:25:14;;;;;;;29.47;26.30;;;9.00;99.90;;;;;;5064636;28;20454;-88
2021/11/14 01:27:44;;;;;;;30.30;25.17;;;9.00;99.90;;;;;;5065873;28;20436;-88
2021/11/14 01:30:15;;;;;;;28.17;25.13;;;9.00;99.90;;;;;;5084110;28;20447;-88
2021/11/14 01:32:44;;;;;;;28.90;25.23;;;9.00;99.90;;;;;;5098341;22;20564;-90
2021/11/14 01:35:19;;;;;;;28.77;25.67;;;9.00;99.90;;;;;;5053673;28;20456;-90
2021/11/14 01:37:53;;;;;;;29.67;24.97;;;9.00;99.90;;;;;;5054878;28;20451;-89
2021/11/14 01:40:23;;;;;;;30.23;25.03;;;8.90;99.90;;;;;;5057744;28;20910;-90
2021/11/14 01:42:54;;;;;;;29.80;25.23;;;8.90;99.90;;;;;;5058196;28;20463;-89
2021/11/14 01:45:21;;;;;;;30.00;25.43;;;8.90;99.90;;;;;;5089956;28;20449;-89
2021/11/14 01:47:50;;;;;;;29.93;26.00;;;8.90;99.90;;;;;;5079454;28;20475;-90
2021/11/14 01:50:20;;;;;;;29.37;25.90;;;8.90;99.90;;;;;;5077563;28;20447;-92
2021/11/14 01:52:49;;;;;;;28.17;24.90;;;8.90;99.90;;;;;;5077829;28;20496;-91
2021/11/14 01:55:19;;;;;;;32.37;25.80;;;8.90;99.90;;;;;;5077584;28;20915;-89
2021/11/14 01:57:48;;;;;;;29.23;25.20;;;8.90;99.90;;;;;;5081986;28;20443;-89
2021/11/14 02:00:22;;;;;;;34.00;27.53;;;8.90;99.90;;;;;;5060207;28;20478;-89
2021/11/14 02:02:51;;;;;;;34.27;27.23;;;8.90;99.90;;;;;;5061425;28;20829;-90
2021/11/14 02:05:22;;;;;;;31.00;25.80;;;8.90;99.90;;;;;;5069379;28;20494;-89
2021/11/14 02:07:50;;;;;;;30.73;25.60;;;8.90;99.90;;;;;;5083526;28;20454;-89
2021/11/14 02:10:19;;;;;;;30.00;26.60;;;8.90;99.90;;;;;;5078486;28;20485;-89
2021/11/14 02:12:50;;;;;;;30.53;26.67;;;8.80;99.90;;;;;;5079938;28;20477;-89
2021/11/14 02:15:22;;;;;;;31.53;26.60;;;8.90;99.90;;;;;;5088768;28;20475;-89
2021/11/14 02:17:49;;;;;;;30.93;27.20;;;8.80;99.90;;;;;;5079716;28;20513;-90
2021/11/14 02:20:22;;;;;;;35.50;27.53;;;8.90;99.90;;;;;;5078398;28;20486;-90
2021/11/14 02:22:51;;;;;;;31.93;25.67;;;8.90;99.90;;;;;;5087358;28;20488;-89
2021/11/14 02:25:25;;;;;;;31.47;25.93;;;9.00;99.90;;;;;;5099654;28;20444;-88
2021/11/14 02:27:57;;;;;;;32.43;26.30;;;8.80;99.90;;;;;;5097647;28;20498;-88
2021/11/14 02:30:29;;;;;;;33.07;26.50;;;8.70;99.90;;;;;;5081699;28;20452;-89
2021/11/14 02:32:59;;;;;;;32.97;26.27;;;8.70;99.90;;;;;;5092855;28;20487;-89
2021/11/14 02:35:30;;;;;;;31.10;27.17;;;8.70;99.90;;;;;;5060154;28;20455;-88
2021/11/14 02:38:00;;;;;;;33.60;27.17;;;8.70;99.90;;;;;;5057930;28;20441;-89
2021/11/14 02:40:29;;;;;;;37.80;27.37;;;8.80;99.90;;;;;;5077290;28;20451;-89
2021/11/14 02:42:57;;;;;;;30.30;26.90;;;8.80;99.90;;;;;;5077079;28;20482;-90
2021/11/14 02:45:27;;;;;;;31.00;26.50;;;8.90;99.90;;;;;;5057063;28;20429;-89
2021/11/14 02:47:54;;;;;;;35.17;27.60;;;8.90;99.90;;;;;;5066638;28;20443;-89
2021/11/14 02:50:25;;;;;;;30.90;27.60;;;8.90;99.90;;;;;;5097562;28;20442;-88
2021/11/14 02:52:54;;;;;;;33.40;25.70;;;8.90;99.90;;;;;;5095793;28;20440;-88
2021/11/14 02:55:26;;;;;;;31.10;26.23;;;8.90;99.90;;;;;;5096186;28;21066;-89
2021/11/14 02:57:56;;;;;;;31.43;26.73;;;8.90;99.90;;;;;;5095874;28;20427;-89
2021/11/14 03:00:26;;;;;;;32.67;26.47;;;9.00;99.90;;;;;;5081483;28;20456;-90
2021/11/14 03:02:56;;;;;;;39.70;28.40;;;9.00;99.90;;;;;;5096529;28;20470;-89
2021/11/14 03:05:28;;;;;;;29.60;24.63;;;9.00;99.90;;;;;;5099639;28;20416;-88
2021/11/14 03:07:59;;;;;;;34.20;26.03;;;9.00;99.90;;;;;;5099339;28;20455;-89
2021/11/14 03:13:26;;;;;;;31.27;25.40;;;9.00;99.90;;;;;;5613041;22;20492;-89
2021/11/14 03:15:55;;;;;;;29.13;24.60;;;9.10;99.90;;;;;;5055766;28;20432;-88
2021/11/14 03:18:27;;;;;;;33.60;26.10;;;9.10;99.90;;;;;;5067487;28;20441;-88
2021/11/14 03:21:01;;;;;;;34.63;27.03;;;9.10;99.90;;;;;;5059561;28;20436;-88
2021/11/14 03:23:33;;;;;;;32.10;25.47;;;9.10;99.90;;;;;;5038724;28;20445;-89
2021/11/14 03:26:08;;;;;;;30.30;25.37;;;9.10;99.90;;;;;;5022252;28;20458;-90
2021/11/14 03:28:40;;;;;;;28.07;25.07;;;9.10;99.90;;;;;;5037058;28;20503;-90
2021/11/14 03:31:09;;;;;;;33.00;26.23;;;9.10;99.90;;;;;;5040009;28;20425;-89
2021/11/14 03:33:39;;;;;;;29.83;24.83;;;9.10;99.90;;;;;;5041432;28;20456;-90
2021/11/14 03:36:08;;;;;;;27.83;23.73;;;9.10;99.90;;;;;;5044909;28;20429;-89
2021/11/14 03:38:41;;;;;;;30.53;25.40;;;9.10;99.90;;;;;;5054420;28;20449;-89
2021/11/14 03:41:17;;;;;;;32.03;28.30;;;9.00;99.90;;;;;;5057237;28;20440;-90
2021/11/14 03:43:44;;;;;;;31.30;25.33;;;9.00;99.90;;;;;;5058048;28;20433;-90
2021/11/14 03:46:17;;;;;;;28.80;25.23;;;9.10;99.90;;;;;;5059378;28;20432;-88
2021/11/14 03:48:46;;;;;;;29.80;25.00;;;9.10;99.90;;;;;;5059397;28;20457;-89
2021/11/14 03:51:18;;;;;;;28.97;23.17;;;9.10;99.90;;;;;;5059162;28;20446;-89
2021/11/14 03:53:47;;;;;;;26.03;23.23;;;9.10;99.90;;;;;;5059519;28;20410;-89
2021/11/14 03:56:16;;;;;;;28.23;23.00;;;9.10;99.90;;;;;;5059301;28;20468;-89
2021/11/14 03:58:43;;;;;;;28.47;25.43;;;9.10;99.90;;;;;;5059228;28;20453;-89
2021/11/14 04:01:17;;;;;;;27.83;24.93;;;9.10;99.90;;;;;;5058120;28;20433;-90
2021/11/14 04:03:45;;;;;;;30.37;24.67;;;9.10;99.90;;;;;;5058854;28;20413;-90
2021/11/14 04:06:43;;;;;;;29.40;25.43;;;9.10;99.90;;;;;;5059291;28;20430;-88
2021/11/14 04:09:13;;;;;;;29.40;23.67;;;9.10;99.90;;;;;;5058652;28;20459;-89
2021/11/14 04:11:43;;;;;;;28.80;22.73;;;9.10;99.90;;;;;;5058110;28;20461;-89
2021/11/14 04:14:11;;;;;;;28.90;25.30;;;9.10;99.90;;;;;;5058352;28;20474;-89
2021/11/14 04:16:40;;;;;;;27.77;24.60;;;9.10;99.90;;;;;;5058178;28;20429;-89
2021/11/14 04:19:16;;;;;;;25.20;22.50;;;9.10;99.90;;;;;;5058446;28;20417;-90
2021/11/14 04:21:43;;;;;;;27.10;24.20;;;9.10;99.90;;;;;;5057936;28;20520;-92
2021/11/14 04:24:16;;;;;;;32.17;23.30;;;9.10;99.90;;;;;;5057834;28;20443;-89
2021/11/14 04:26:45;;;;;;;27.40;23.57;;;9.00;99.90;;;;;;5057576;28;20491;-89
2021/11/14 04:29:14;;;;;;;26.97;22.70;;;9.00;99.90;;;;;;5056967;28;20492;-89
2021/11/14 04:31:43;;;;;;;28.60;24.63;;;9.00;99.90;;;;;;5056385;28;20503;-90
2021/11/14 04:34:12;;;;;;;28.03;22.77;;;9.00;99.90;;;;;;5036056;28;20584;-90
2021/11/14 04:36:39;;;;;;;26.17;23.37;;;9.00;99.90;;;;;;5036824;28;20505;-91
2021/11/14 04:39:06;;;;;;;30.80;25.20;;;9.00;99.90;;;;;;5054879;28;20434;-90
2021/11/14 04:41:43;;;;;;;27.23;24.20;;;9.00;99.90;;;;;;5043688;28;20485;-90
2021/11/14 04:44:10;;;;;;;24.00;21.53;;;9.00;99.90;;;;;;5051639;28;20452;-90
2021/11/14 04:46:38;;;;;;;30.03;24.93;;;9.00;99.90;;;;;;5043869;28;20464;-90
2021/11/14 04:49:08;;;;;;;30.40;22.97;;;9.00;99.90;;;;;;5045190;28;20469;-90
2021/11/14 04:51:37;;;;;;;27.17;23.13;;;9.00;99.90;;;;;;5048291;28;20492;-89
2021/11/14 04:54:07;;;;;;;29.77;23.67;;;9.00;99.90;;;;;;5052912;28;20449;-90
2021/11/14 04:56:37;;;;;;;25.37;22.60;;;9.00;99.90;;;;;;5048523;28;20436;-90
2021/11/14 04:59:05;;;;;;;27.90;24.10;;;9.10;99.90;;;;;;5045679;28;20449;-91
2021/11/14 05:01:37;;;;;;;27.23;23.00;;;9.10;99.90;;;;;;5036772;28;21075;-90
2021/11/14 05:04:08;;;;;;;30.13;23.67;;;9.00;99.90;;;;;;5048179;28;20437;-90
2021/11/14 05:06:34;;;;;;;30.80;26.30;;;8.90;99.90;;;;;;5037326;28;20454;-90
2021/11/14 05:09:05;;;;;;;27.40;23.00;;;9.00;99.90;;;;;;5034219;28;20877;-90
2021/11/14 05:11:43;;;;;;;32.63;25.80;;;9.00;99.90;;;;;;5035571;28;20477;-90
2021/11/14 05:14:10;;;;;;;27.40;24.20;;;9.10;99.90;;;;;;5039626;28;20499;-90
2021/11/14 05:16:37;;;;;;;27.40;22.70;;;9.10;99.90;;;;;;5040333;28;20881;-90
2021/11/14 05:19:04;;;;;;;31.27;24.37;;;9.10;99.90;;;;;;5040304;28;20450;-90
2021/11/14 05:21:31;;;;;;;29.87;25.20;;;9.10;99.90;;;;;;5038279;28;20540;-91
2021/11/14 05:23:58;;;;;;;29.00;23.77;;;9.10;99.90;;;;;;5039786;28;20517;-90
2021/11/14 05:26:25;;;;;;;28.43;22.83;;;9.10;99.90;;;;;;5041899;28;20445;-90
2021/11/14 05:28:59;;;;;;;30.03;24.60;;;9.10;99.90;;;;;;5039291;28;20494;-90
2021/11/14 05:31:26;;;;;;;30.43;25.97;;;9.20;99.90;;;;;;5038711;28;20496;-91
2021/11/14 05:33:53;;;;;;;30.07;23.63;;;9.20;99.90;;;;;;5037366;28;20459;-89
2021/11/14 05:36:23;;;;;;;31.63;23.60;;;9.20;99.90;;;;;;5037657;28;20541;-91
2021/11/14 05:38:50;;;;;;;28.73;23.90;;;9.20;99.90;;;;;;5037172;28;20449;-91
2021/11/14 05:41:20;;;;;;;34.43;25.93;;;9.30;99.90;;;;;;5049576;28;20522;-91
2021/11/14 05:43:51;;;;;;;28.07;24.43;;;9.30;99.90;;;;;;5038724;28;20449;-91
2021/11/14 05:46:24;;;;;;;26.73;23.80;;;9.30;99.90;;;;;;5039389;28;20461;-90
2021/11/14 05:48:51;;;;;;;28.10;24.10;;;9.30;99.90;;;;;;5039098;28;20934;-90
2021/11/14 05:51:18;;;;;;;28.10;22.70;;;9.30;99.90;;;;;;5055841;28;20440;-89
2021/11/14 05:53:45;;;;;;;26.10;21.50;;;9.30;99.90;;;;;;5061081;28;20433;-89
2021/11/14 05:56:12;;;;;;;27.77;23.77;;;9.30;99.90;;;;;;5051181;28;20425;-90
2021/11/14 05:58:46;;;;;;;28.57;23.50;;;9.30;99.90;;;;;;5039501;28;20439;-91
2021/11/14 06:01:16;;;;;;;27.47;22.80;;;9.30;99.90;;;;;;5046824;28;20458;-90
2021/11/14 06:03:54;;;;;;;29.30;24.13;;;9.30;99.90;;;;;;5052400;28;20449;-90
2021/11/14 06:06:26;;;;;;;27.37;24.17;;;9.30;99.90;;;;;;5040375;28;20457;-90
2021/11/14 06:08:56;;;;;;;28.07;23.80;;;9.30;99.90;;;;;;5037494;28;20453;-90
2021/11/14 06:11:25;;;;;;;29.53;23.67;;;9.30;99.90;;;;;;5043520;28;20531;-90
2021/11/14 06:13:53;;;;;;;26.40;22.40;;;9.30;99.90;;;;;;5048051;28;20448;-90
2021/11/14 06:16:22;;;;;;;27.60;23.57;;;9.30;99.90;;;;;;5037518;28;20980;-90
2021/11/14 06:18:54;;;;;;;28.90;24.10;;;9.20;99.90;;;;;;5046706;28;20453;-90
2021/11/14 06:21:23;;;;;;;27.50;22.73;;;9.20;99.90;;;;;;5038107;28;21107;-90
2021/11/14 06:23:53;;;;;;;26.87;23.90;;;9.20;99.90;;;;;;5035687;28;20507;-91
2021/11/14 06:26:23;;;;;;;28.90;22.20;;;9.10;99.90;;;;;;5037686;28;20456;-90
2021/11/14 06:28:53;;;;;;;29.10;23.67;;;9.10;99.90;;;;;;5049314;28;20446;-90
2021/11/14 06:31:23;;;;;;;26.83;23.00;;;9.10;99.90;;;;;;5036672;28;20565;-90
2021/11/14 06:33:54;;;;;;;27.17;23.53;;;9.10;99.90;;;;;;5036728;28;20446;-90
2021/11/14 06:36:28;;;;;;;30.60;24.43;;;9.00;99.90;;;;;;5036449;28;20456;-90
2021/11/14 06:38:58;;;;;;;26.83;22.13;;;9.00;99.90;;;;;;5036068;28;20826;-90
2021/11/14 06:41:28;;;;;;;29.77;24.97;;;9.00;99.90;;;;;;5036247;28;20520;-91
2021/11/14 06:44:00;;;;;;;26.63;23.30;;;9.00;99.90;;;;;;5036251;28;20495;-90
2021/11/14 06:46:29;;;;;;;26.33;21.73;;;9.00;99.90;;;;;;5036880;28;20461;-90
2021/11/14 06:48:59;;;;;;;28.30;24.50;;;9.10;99.90;;;;;;5036037;28;20525;-91
2021/11/14 06:51:29;;;;;;;30.20;24.53;;;9.10;99.90;;;;;;5043562;28;20507;-88
2021/11/14 06:54:00;;;;;;;28.70;24.40;;;9.10;99.90;;;;;;5046061;28;20504;-89
2021/11/14 06:56:27;;;;;;;28.47;25.37;;;9.20;99.90;;;;;;5052730;28;20584;-89
2021/11/14 06:59:00;;;;;;;27.97;24.97;;;9.20;99.90;;;;;;5057355;28;20512;-88
2021/11/14 07:01:32;;;;;;;27.60;23.90;;;9.20;99.90;;;;;;5054543;28;20476;-87
2021/11/14 07:04:13;;;;;;;24.50;21.53;;;9.30;99.90;;;;;;5044507;28;20444;-88
2021/11/14 07:06:40;;;;;;;31.37;23.40;;;9.30;99.90;;;;;;5043039;28;20461;-89
2021/11/14 07:09:12;;;;;;;24.57;21.93;;;9.30;99.90;;;;;;5038513;28;20457;-87
2021/11/14 07:11:39;;;;;;;25.27;22.60;;;9.30;99.90;;;;;;5050548;28;20471;-89
2021/11/14 07:14:09;;;;;;;25.10;21.63;;;9.40;99.90;;;;;;5036621;28;20457;-90
2021/11/14 07:16:39;;;;;;;27.00;23.13;;;9.50;99.90;;;;;;5036199;28;20548;-89
2021/11/14 07:19:11;;;;;;;25.27;22.57;;;9.50;99.90;;;;;;5037724;28;20450;-89
2021/11/14 07:21:38;;;;;;;28.00;21.53;;;9.60;99.90;;;;;;5042388;28;20469;-91
2021/11/14 07:24:10;;;;;;;25.50;21.20;;;9.60;99.90;;;;;;5040174;28;20455;-90
2021/11/14 07:26:43;;;;;;;25.17;22.17;;;9.70;99.90;;;;;;5041028;28;20492;-90
2021/11/14 07:29:13;;;;;;;25.07;22.47;;;9.70;99.90;;;;;;5044290;28;20449;-90
2021/11/14 07:31:43;;;;;;;28.20;23.80;;;9.80;99.90;;;;;;5045546;28;20978;-89
2021/11/14 07:34:14;;;;;;;24.80;21.70;;;9.80;99.90;;;;;;5045078;28;20433;-90
2021/11/14 07:36:41;;;;;;;24.47;21.20;;;9.80;99.90;;;;;;5052585;28;20434;-90
2021/11/14 07:39:16;;;;;;;23.93;21.30;;;9.70;99.90;;;;;;5058792;28;20431;-90
2021/11/14 07:41:45;;;;;;;23.83;21.27;;;9.70;99.90;;;;;;5045624;28;20545;-90
2021/11/14 07:44:12;;;;;;;25.23;22.50;;;9.70;99.90;;;;;;5038389;28;20479;-90
2021/11/14 07:46:41;;;;;;;24.20;21.60;;;9.80;99.90;;;;;;5038292;28;20489;-91
2021/11/14 07:49:08;;;;;;;24.57;21.97;;;9.80;99.90;;;;;;5039529;28;20525;-91
2021/11/14 07:51:43;;;;;;;26.07;21.43;;;9.90;99.90;;;;;;5047064;28;20475;-88
2021/11/14 07:54:11;;;;;;;21.97;19.77;;;10.00;99.90;;;;;;5043152;28;20480;-91
2021/11/14 07:56:49;;;;;;;23.73;21.00;;;10.10;99.90;;;;;;5038809;28;20528;-90
2021/11/14 07:59:16;;;;;;;22.70;20.30;;;10.20;99.90;;;;;;5043663;28;20460;-90
2021/11/14 08:01:42;;;;;;;24.50;21.87;;;10.20;99.90;;;;;;5037898;28;20463;-90
2021/11/14 08:04:09;;;;;;;23.63;21.17;;;10.30;99.90;;;;;;5038205;28;20522;-91
2021/11/14 08:06:41;;;;;;;23.77;21.50;;;10.30;99.90;;;;;;5039701;28;20449;-90
2021/11/14 08:09:09;;;;;;;23.10;20.57;;;10.60;99.90;;;;;;5039324;28;20481;-91
2021/11/14 08:11:42;;;;;;;24.20;21.70;;;10.60;99.90;;;;;;5041709;28;20898;-90
2021/11/14 08:14:13;;;;;;;22.03;19.67;;;10.50;99.90;;;;;;5047115;28;20473;-90
2021/11/14 08:16:42;;;;;;;22.20;19.90;;;10.70;99.90;;;;;;5043514;28;20448;-91
2021/11/14 08:19:13;;;;;;;21.63;19.40;;;10.70;99.90;;;;;;5042317;28;20446;-91
2021/11/14 08:21:42;;;;;;;20.70;18.50;;;10.80;99.90;;;;;;5039666;28;20492;-89
2021/11/14 08:24:11;;;;;;;20.73;18.30;;;10.80;99.90;;;;;;5039151;28;20509;-91
2021/11/14 08:26:39;;;;;;;19.70;17.60;;;10.90;99.90;;;;;;5037348;28;20433;-89
2021/11/14 08:29:09;;;;;;;20.10;17.73;;;10.90;99.90;;;;;;5038012;28;20817;-90
2021/11/14 08:31:43;;;;;;;22.47;20.10;;;10.90;99.90;;;;;;5040249;28;20481;-91
2021/11/14 08:34:11;;;;;;;20.90;18.40;;;11.10;99.90;;;;;;5040343;28;20460;-91
2021/11/14 08:36:43;;;;;;;18.70;16.80;;;10.80;99.90;;;;;;5039673;28;20515;-90
2021/11/14 08:39:17;;;;;;;21.40;19.20;;;10.50;99.90;;;;;;5038707;28;20557;-90
2021/11/14 08:41:45;;;;;;;21.20;19.03;;;10.50;99.90;;;;;;5037114;28;20488;-88
2021/11/14 08:44:16;;;;;;;20.57;18.13;;;10.50;99.90;;;;;;5037990;28;20457;-88
2021/11/14 08:46:44;;;;;;;20.67;18.53;;;10.60;99.90;;;;;;5039505;28;20453;-89
2021/11/14 08:49:14;;;;;;;21.00;18.80;;;10.70;99.90;;;;;;5052863;28;20461;-89
2021/11/14 08:51:43;;;;;;;22.07;19.83;;;10.80;99.90;;;;;;5051685;28;20548;-89
2021/11/14 08:54:25;;;;;;;20.93;18.50;;;10.90;99.90;;;;;;5048781;28;20449;-90
2021/11/14 08:56:59;;;;;;;21.53;19.40;;;11.00;99.90;;;;;;5054267;28;20508;-90
2021/11/14 08:59:31;;;;;;;21.33;19.23;;;11.20;99.90;;;;;;5056064;28;20463;-90
2021/11/14 09:02:01;;;;;;;20.17;18.07;;;11.40;99.90;;;;;;5046367;28;20457;-90
2021/11/14 09:04:31;;;;;;;19.70;17.70;;;11.60;99.90;;;;;;5051721;28;20415;-88
2021/11/14 09:06:59;;;;;;;19.10;17.10;;;11.60;99.90;;;;;;5052906;28;20461;-89
2021/11/14 09:09:29;;;;;;;21.00;18.90;;;11.60;99.90;;;;;;5054443;28;20445;-90
2021/11/14 09:12:02;;;;;;;20.57;18.47;;;11.60;99.90;;;;;;5046180;28;20493;-90
2021/11/14 09:14:31;;;;;;;21.40;19.00;;;11.60;99.90;;;;;;5053814;28;20445;-90
2021/11/14 09:17:00;;;;;;;19.47;17.47;;;11.50;99.90;;;;;;5056243;28;20432;-89
2021/11/14 09:31:36;;;;;;;19.03;17.10;;;11.70;99.90;;;;;;4958360;29;20484;-92
2021/11/14 09:34:23;;;;;;;18.77;16.77;;;11.70;99.90;;;;;;5004231;28;20454;-92
2021/11/14 09:43:12;;;;;;;22.57;18.27;;;11.80;99.90;;;;;;5010492;28;20451;-93
2021/11/14 09:51:38;;;;;;;20.87;17.33;;;11.80;99.90;;;;;;5106362;22;21117;-92
2021/11/14 09:57:57;;;;;;;19.87;17.77;;;11.70;99.90;;;;;;4998935;28;20446;-92
2021/11/14 10:07:32;;;;;;;19.40;17.23;;;11.70;99.90;;;;;;4998695;28;20858;-93
2021/11/14 10:16:20;;;;;;;20.83;17.63;;;11.70;99.90;;;;;;5030328;28;20453;-92
2021/11/14 10:25:13;;;;;;;20.63;17.03;;;12.20;99.90;;;;;;4990886;28;20964;-93
2021/11/14 10:28:34;;;;;;;18.83;16.87;;;12.20;99.90;;;;;;5020620;28;20449;-93
2021/11/14 10:41:41;;;;;;;20.87;18.50;;;12.10;99.90;;;;;;5028609;28;20460;-94
2021/11/14 10:48:12;;;;;;;21.50;17.27;;;12.10;99.90;;;;;;5026095;28;20471;-94
2021/11/14 10:54:31;;;;;;;31.37;22.30;;;12.30;99.90;;;;;;4970144;28;20441;-93
2021/11/14 10:57:01;;;;;;;22.50;18.73;;;12.20;99.90;;;;;;4979958;28;20442;-83
2021/11/14 10:59:27;;;;;;;21.30;18.43;;;12.00;99.90;;;;;;5053419;28;20469;-83
2021/11/14 11:01:54;;;;;;;22.77;19.60;;;11.90;99.90;;;;;;5042892;28;20939;-83
2021/11/14 11:04:24;;;;;;;22.50;19.00;;;11.80;99.90;;;;;;5029236;28;20480;-83
2021/11/14 11:06:54;;;;;;;22.97;17.33;;;11.80;99.90;;;;;;5029002;28;20456;-84
2021/11/14 11:09:31;;;;;;;22.30;17.63;;;11.60;99.90;;;;;;5045029;28;20520;-83
2021/11/14 11:12:01;;;;;;;22.20;17.17;;;11.50;99.90;;;;;;5042341;28;20507;-83
2021/11/14 11:14:28;;;;;;;24.13;19.03;;;11.50;99.90;;;;;;5026344;28;20477;-83
2021/11/14 11:16:59;;;;;;;20.27;17.33;;;11.50;99.90;;;;;;5026908;28;20518;-90
2021/11/14 11:22:05;;;;;;;21.33;18.53;;;11.60;99.90;;;;;;5195090;23;21094;-86
2021/11/14 11:24:31;;;;;;;20.33;18.23;;;11.90;99.90;;;;;;5043178;28;20476;-86
2021/11/14 11:27:01;;;;;;;23.53;19.20;;;12.10;99.90;;;;;;5039644;28;20513;-86
2021/11/14 11:29:30;;;;;;;24.77;19.03;;;12.20;99.90;;;;;;5055548;28;20450;-84
2021/11/14 11:31:58;;;;;;;22.07;19.87;;;12.20;99.90;;;;;;5049120;28;20568;-85
2021/11/14 11:34:26;;;;;;;23.03;19.27;;;12.30;99.90;;;;;;5037209;28;20461;-85
2021/11/14 11:36:55;;;;;;;21.27;19.00;;;12.30;99.90;;;;;;5042057;28;20937;-85
2021/11/14 11:39:23;;;;;;;22.50;20.20;;;12.30;99.90;;;;;;5055516;28;20452;-85
2021/11/14 11:41:52;;;;;;;22.83;19.00;;;12.20;99.90;;;;;;5047544;28;20470;-84
2021/11/14 11:44:20;;;;;;;22.57;20.23;;;12.20;99.90;;;;;;5056617;28;20453;-84
2021/11/14 11:46:50;;;;;;;24.93;20.00;;;12.20;99.90;;;;;;5046127;28;20446;-85
2021/11/14 11:49:21;;;;;;;19.40;17.40;;;12.30;99.90;;;;;;5054720;28;20453;-86
2021/11/14 11:51:50;;;;;;;23.90;20.00;;;12.30;99.90;;;;;;5045765;28;20489;-85
2021/11/14 11:54:19;;;;;;;23.77;20.30;;;12.30;99.90;;;;;;5040983;28;20453;-85
2021/11/14 11:56:50;;;;;;;22.97;17.23;;;12.20;99.90;;;;;;5036190;28;20803;-85
2021/11/14 11:59:20;;;;;;;21.17;17.73;;;12.10;99.90;;;;;;5057657;28;20451;-86
2021/11/14 12:01:49;;;;;;;22.27;17.43;;;12.10;99.90;;;;;;5045484;28;20460;-86
2021/11/14 12:04:19;;;;;;;18.80;16.30;;;12.00;99.90;;;;;;5060759;28;20452;-86
2021/11/14 12:06:50;;;;;;;21.70;18.33;;;12.20;99.90;;;;;;5050090;28;20461;-85
2021/11/14 12:09:18;;;;;;;18.40;15.83;;;12.60;99.90;;;;;;5041554;28;20435;-87
2021/11/14 12:11:48;;;;;;;20.43;17.53;;;12.90;99.90;;;;;;5037994;28;20478;-85
2021/11/14 12:14:20;;;;;;;24.60;17.87;;;13.30;99.90;;;;;;5034411;28;20430;-87
2021/11/14 12:16:59;;;;;;;18.17;15.57;;;13.40;99.90;;;;;;5035169;28;20963;-86
2021/11/14 12:19:29;;;;;;;21.73;18.00;;;13.30;99.90;;;;;;5033384;28;20477;-86
2021/11/14 12:22:04;;;;;;;21.13;18.10;;;13.30;99.90;;;;;;5046530;28;20447;-88
2021/11/14 12:24:46;;;;;;;22.00;18.00;;;13.40;99.90;;;;;;5039793;28;20539;-88
2021/11/14 12:27:24;;;;;;;18.30;16.17;;;13.60;99.90;;;;;;5034905;28;20443;-88
2021/11/14 12:29:57;;;;;;;21.03;17.40;;;13.60;99.90;;;;;;5031005;28;20454;-86
2021/11/14 12:32:30;;;;;;;17.67;15.17;;;13.50;99.90;;;;;;5034385;28;20485;-86
2021/11/14 12:35:01;;;;;;;18.20;14.70;;;13.30;99.90;;;;;;5033937;28;20820;-86
2021/11/14 12:37:29;;;;;;;19.37;15.23;;;13.20;99.90;;;;;;5039675;28;20487;-86
2021/11/14 12:40:11;;;;;;;22.60;18.10;;;13.10;99.90;;;;;;5043969;28;21604;-85
2021/11/14 12:42:43;;;;;;;22.47;17.63;;;12.90;99.90;;;;;;5033539;28;20890;-86
2021/11/14 12:45:10;;;;;;;24.47;18.30;;;12.80;99.90;;;;;;5033630;28;20446;-85
2021/11/14 12:47:41;;;;;;;23.37;18.00;;;12.70;99.90;;;;;;5035031;28;20464;-85
2021/11/14 12:50:15;;;;;;;23.00;17.30;;;12.70;99.90;;;;;;5033443;28;20596;-86
2021/11/14 12:52:43;;;;;;;24.57;20.97;;;12.60;99.90;;;;;;5031741;28;20832;-85
2021/11/14 12:55:13;;;;;;;27.60;20.20;;;12.50;99.90;;;;;;5032555;28;20447;-86
2021/11/14 12:57:49;;;;;;;26.77;20.30;;;12.40;99.90;;;;;;5032601;28;20821;-86
2021/11/14 13:00:29;;;;;;;25.33;18.40;;;12.30;99.90;;;;;;5033881;28;20515;-85
2021/11/14 13:02:56;;;;;;;24.10;18.70;;;12.30;99.90;;;;;;5032284;28;20437;-86
2021/11/14 13:05:23;;;;;;;25.57;19.70;;;12.30;99.90;;;;;;5032654;28;20451;-86
2021/11/14 13:07:53;;;;;;;24.80;19.40;;;12.20;99.90;;;;;;5040342;28;20453;-84
2021/11/14 13:10:21;;;;;;;22.83;18.57;;;12.20;99.90;;;;;;5055278;28;20489;-84
2021/11/14 13:12:52;;;;;;;23.30;17.63;;;12.20;99.90;;;;;;5053429;28;20493;-85
2021/11/14 13:15:19;;;;;;;22.90;18.40;;;12.10;99.90;;;;;;5039643;28;20468;-86
2021/11/14 13:17:48;;;;;;;25.20;19.40;;;12.10;99.90;;;;;;5046287;23;20534;-89
2021/11/14 13:20:17;;;;;;;23.93;18.60;;;12.20;99.90;;;;;;5034907;28;20456;-90
2021/11/14 13:22:49;;;;;;;26.13;21.43;;;12.20;99.90;;;;;;5033253;28;20464;-91
2021/11/14 13:25:20;;;;;;;25.50;20.63;;;12.30;99.90;;;;;;5039661;28;20480;-87
2021/11/14 13:27:51;;;;;;;22.00;19.67;;;12.30;99.90;;;;;;5045018;28;20466;-90
2021/11/14 13:30:18;;;;;;;23.87;20.17;;;12.40;99.90;;;;;;5028464;28;20431;-88
2021/11/14 13:32:47;;;;;;;25.30;19.63;;;12.40;99.90;;;;;;5025314;28;20864;-90
2021/11/14 13:35:14;;;;;;;25.30;20.40;;;12.60;99.90;;;;;;5021165;28;20481;-89
2021/11/14 13:37:41;;;;;;;23.43;19.17;;;12.60;99.90;;;;;;5019321;28;20483;-89
2021/11/14 13:40:11;;;;;;;21.60;18.90;;;12.70;99.90;;;;;;5022200;28;20993;-88
2021/11/14 13:42:40;;;;;;;20.10;17.07;;;12.80;99.90;;;;;;5023847;28;20444;-88
2021/11/14 13:45:11;;;;;;;21.53;18.10;;;12.90;99.90;;;;;;5040356;28;20438;-88
2021/11/14 13:47:42;;;;;;;21.20;17.23;;;13.00;99.90;;;;;;5024081;28;20481;-88
2021/11/14 13:50:24;;;;;;;19.43;16.43;;;13.00;99.90;;;;;;5032302;28;20445;-88
2021/11/14 13:52:55;;;;;;;19.70;17.43;;;13.00;99.90;;;;;;5032224;28;20474;-86
2021/11/14 13:55:22;;;;;;;20.70;17.60;;;12.90;99.90;;;;;;5023685;28;20460;-87
2021/11/14 13:57:50;;;;;;;19.40;17.03;;;12.80;99.90;;;;;;5018016;28;20981;-88
2021/11/14 14:00:22;;;;;;;19.63;17.50;;;12.80;99.90;;;;;;5018566;28;20443;-88